Time;durP1;ratioP1;P1;durP2;ratioP2;P2;SDS_P1;SDS_P2;PMS_P1;PMS_P2;Temp;Humidity;BMP_temperature;BMP_pressure;BME280_temperature;BME280_humidity;BME280_pressure;Samples;Min_cycle;Max_cycle;Signal;HPM_P1;HPM_P2
2022/02/05 00:00:51;;;;;;;5.30;2.00;;;;;;;;;;5012178;28;20067;-72
2022/02/05 00:03:24;;;;;;;9.10;2.10;;;;;;;;;;5027884;28;20024;-73
2022/02/05 00:05:58;;;;;;;6.80;2.17;;;;;;;;;;5028262;28;20063;-72
2022/02/05 00:41:00;;;;;;;5.13;2.15;;;;;;;;;;5027297;28;20108;-73
2022/02/05 00:43:30;;;;;;;5.15;2.05;;;;;;;;;;5025929;28;20057;-72
2022/02/05 00:45:57;;;;;;;6.35;2.20;;;;;;;;;;5026941;28;20175;-72
2022/02/05 00:48:24;;;;;;;6.22;2.20;;;;;;;;;;5027139;28;20501;-72
2022/02/05 00:51:11;;;;;;;7.70;2.38;;;;;;;;;;5026882;28;20025;-72
2022/02/05 00:53:38;;;;;;;6.30;2.22;;;;;;;;;;5024534;28;20129;-72
2022/02/05 00:58:37;;;;;;;5.85;2.13;;;;;;;;;;5026188;28;20087;-72
2022/02/05 01:01:03;;;;;;;6.82;2.22;;;;;;;;;;5026631;28;20674;-72
2022/02/05 01:03:29;;;;;;;12.35;2.92;;;;;;;;;;5026996;28;20029;-72
2022/02/05 01:05:55;;;;;;;6.70;1.80;;;;;;;;;;5025192;28;20025;-72
2022/02/05 01:08:24;;;;;;;5.22;2.08;;;;;;;;;;5026754;28;20095;-72
2022/02/05 01:10:51;;;;;;;10.02;2.40;;;;;;;;;;5027043;28;20037;-72
2022/02/05 01:13:17;;;;;;;5.60;1.85;;;;;;;;;;5026429;28;20026;-72
2022/02/05 01:15:53;;;;;;;6.32;2.08;;;;;;;;;;5027032;28;20029;-72
2022/02/05 01:18:21;;;;;;;9.63;2.20;;;;;;;;;;5006045;28;20112;-72
2022/02/05 01:21:06;;;;;;;7.75;2.60;;;;;;;;;;5007086;28;20042;-72
2022/02/05 01:23:39;;;;;;;6.50;2.10;;;;;;;;;;5010543;28;20387;-72
2022/02/05 01:26:15;;;;;;;6.20;2.10;;;;;;;;;;5011267;28;20022;-72
2022/02/05 01:28:44;;;;;;;3.72;1.65;;;;;;;;;;5009696;28;20033;-72
2022/02/05 01:31:10;;;;;;;5.55;2.03;;;;;;;;;;5010647;28;20113;-73
2022/02/05 01:33:50;;;;;;;10.82;2.85;;;;;;;;;;5010932;28;20050;-72
2022/02/05 01:52:35;;;;;;;5.93;2.08;;;;;;;;;;5043743;28;20044;-72
2022/02/05 02:11:38;;;;;;;5.47;1.80;;;;;;;;;;5042236;28;20075;-72
2022/02/05 02:14:25;;;;;;;6.68;1.88;;;;;;;;;;5009043;28;20111;-71
2022/02/05 02:19:30;;;;;;;6.53;1.80;;;;;;;;;;5024280;28;20033;-72
2022/02/05 02:22:07;;;;;;;3.58;1.65;;;;;;;;;;5025260;28;20017;-72
2022/02/05 02:24:54;;;;;;;3.25;1.40;;;;;;;;;;5023238;28;20033;-72
2022/02/05 02:32:26;;;;;;;4.65;1.80;;;;;;;;;;5024989;28;20985;-72
2022/02/05 02:34:58;;;;;;;6.72;1.70;;;;;;;;;;5023678;28;20056;-72
2022/02/05 02:37:32;;;;;;;6.82;2.15;;;;;;;;;;5025176;28;20025;-71
2022/02/05 02:40:08;;;;;;;3.92;1.80;;;;;;;;;;5025026;28;20029;-72
2022/02/05 02:42:40;;;;;;;3.55;1.48;;;;;;;;;;5006563;28;20033;-72
2022/02/05 02:45:06;;;;;;;6.22;1.50;;;;;;;;;;5007162;28;20040;-71
2022/02/05 02:47:32;;;;;;;6.03;1.67;;;;;;;;;;5006230;28;20128;-72
2022/02/05 02:50:08;;;;;;;3.70;1.58;;;;;;;;;;5024736;28;20091;-72
2022/02/05 02:58:07;;;;;;;3.97;1.70;;;;;;;;;;5004618;28;20033;-72
2022/02/05 03:00:34;;;;;;;4.13;1.67;;;;;;;;;;5004199;28;20109;-71
2022/02/05 03:03:00;;;;;;;3.10;1.60;;;;;;;;;;5004489;28;20033;-72
2022/02/05 03:05:26;;;;;;;4.80;2.20;;;;;;;;;;5004446;28;20655;-72
2022/02/05 03:07:52;;;;;;;5.78;1.98;;;;;;;;;;5004732;28;20111;-72
2022/02/05 03:10:18;;;;;;;6.93;1.63;;;;;;;;;;5024239;28;20026;-72
2022/02/05 03:12:45;;;;;;;7.75;1.85;;;;;;;;;;4997398;28;20633;-73
2022/02/05 03:15:14;;;;;;;8.65;1.65;;;;;;;;;;5004225;28;20080;-72
2022/02/05 03:17:52;;;;;;;7.95;1.50;;;;;;;;;;5018753;28;20060;-72
2022/02/05 03:20:19;;;;;;;3.88;1.50;;;;;;;;;;5006559;28;20629;-72
2022/02/05 03:22:45;;;;;;;5.97;1.92;;;;;;;;;;5006534;28;20038;-72
2022/02/05 03:25:11;;;;;;;4.30;1.30;;;;;;;;;;5023334;28;20031;-72
2022/02/05 03:27:37;;;;;;;3.95;1.52;;;;;;;;;;5021995;28;20095;-72
2022/02/05 03:30:04;;;;;;;3.83;1.35;;;;;;;;;;5023276;28;20078;-72
2022/02/05 03:32:30;;;;;;;7.50;1.83;;;;;;;;;;5023953;28;20420;-72
2022/02/05 03:34:56;;;;;;;3.33;1.60;;;;;;;;;;5023514;28;20053;-72
2022/02/05 03:37:23;;;;;;;3.70;1.80;;;;;;;;;;5020764;28;20092;-72
2022/02/05 03:39:49;;;;;;;4.90;1.50;;;;;;;;;;5003218;28;20382;-72
2022/02/05 03:42:15;;;;;;;5.20;1.48;;;;;;;;;;5011802;28;20033;-72
2022/02/05 03:44:41;;;;;;;5.82;1.73;;;;;;;;;;5022573;28;20026;-72
2022/02/05 03:47:08;;;;;;;2.30;1.25;;;;;;;;;;5023281;28;20084;-73
2022/02/05 03:49:34;;;;;;;4.43;1.50;;;;;;;;;;5022499;28;20474;-72
2022/02/05 03:52:00;;;;;;;9.30;2.13;;;;;;;;;;5023291;28;20827;-72
2022/02/05 03:54:29;;;;;;;4.43;1.30;;;;;;;;;;5022961;28;20029;-72
2022/02/05 03:56:55;;;;;;;4.03;1.30;;;;;;;;;;5023034;28;20481;-72
2022/02/05 03:59:21;;;;;;;5.63;1.40;;;;;;;;;;5021745;28;20060;-73
2022/02/05 04:01:48;;;;;;;5.95;2.25;;;;;;;;;;5022622;28;20109;-72
2022/02/05 04:04:15;;;;;;;3.85;1.40;;;;;;;;;;5001724;28;20038;-72
2022/02/05 04:06:41;;;;;;;3.25;1.60;;;;;;;;;;5000190;28;20715;-72
2022/02/05 04:09:15;;;;;;;4.53;1.77;;;;;;;;;;5016595;28;20553;-73
2022/02/05 04:17:11;;;;;;;6.13;1.60;;;;;;;;;;5020433;28;20643;-72
2022/02/05 04:19:37;;;;;;;6.25;1.52;;;;;;;;;;5020684;28;20033;-72
2022/02/05 04:22:04;;;;;;;6.53;1.90;;;;;;;;;;5020397;28;20095;-73
2022/02/05 04:24:30;;;;;;;3.63;1.50;;;;;;;;;;5019351;28;20064;-73
2022/02/05 04:26:56;;;;;;;6.60;1.90;;;;;;;;;;5019862;28;20026;-72
2022/02/05 04:29:22;;;;;;;8.10;1.73;;;;;;;;;;5019936;28;20030;-73
2022/02/05 04:31:48;;;;;;;5.20;1.50;;;;;;;;;;5020217;28;20075;-72
2022/02/05 04:34:14;;;;;;;5.53;1.80;;;;;;;;;;5020213;28;20049;-72
2022/02/05 04:36:41;;;;;;;3.20;1.42;;;;;;;;;;5018146;28;20125;-73
2022/02/05 04:39:11;;;;;;;5.00;1.58;;;;;;;;;;5020481;28;20064;-73
2022/02/05 04:41:48;;;;;;;4.47;1.90;;;;;;;;;;5019732;28;20068;-73
2022/02/05 04:44:27;;;;;;;4.00;1.50;;;;;;;;;;5037961;28;20100;-73
2022/02/05 04:47:47;;;;;;;5.80;2.10;;;;;;;;;;5024874;28;20061;-73
2022/02/05 04:58:11;;;;;;;3.80;1.73;;;;;;;;;;5019558;28;20242;-74
2022/02/05 05:03:29;;;;;;;;;;;;;;;;;;5003741;28;20107;-74
2022/02/05 05:06:25;;;;;;;7.78;1.50;;;;;;;;;;5018730;28;19915;-73
2022/02/05 05:09:10;;;;;;;3.42;1.60;;;;;;;;;;5017632;28;20710;-73
2022/02/05 05:11:44;;;;;;;5.65;1.88;;;;;;;;;;5019452;28;20069;-73
2022/02/05 05:19:31;;;;;;;2.97;1.63;;;;;;;;;;5015640;28;20563;-74
2022/02/05 05:21:58;;;;;;;5.82;1.80;;;;;;;;;;5019865;28;20041;-74
2022/02/05 05:24:24;;;;;;;4.32;2.15;;;;;;;;;;5019505;28;20617;-73
2022/02/05 05:26:50;;;;;;;4.90;1.63;;;;;;;;;;5019736;28;20026;-74
2022/02/05 05:29:16;;;;;;;3.40;1.60;;;;;;;;;;5018300;28;20099;-74
2022/02/05 05:31:43;;;;;;;7.15;1.80;;;;;;;;;;5019363;28;20502;-73
2022/02/05 05:34:09;;;;;;;4.95;1.80;;;;;;;;;;5019729;28;20606;-72
2022/02/05 05:36:35;;;;;;;4.47;1.70;;;;;;;;;;5018870;28;20025;-72
2022/02/05 05:39:02;;;;;;;5.65;1.88;;;;;;;;;;5019430;28;20147;-74
2022/02/05 05:41:33;;;;;;;5.70;2.00;;;;;;;;;;5001602;28;20494;-73
2022/02/05 05:46:43;;;;;;;5.88;2.08;;;;;;;;;;5018915;28;20917;-73
2022/02/05 05:49:45;;;;;;;7.07;1.73;;;;;;;;;;5019174;28;20039;-72
2022/02/05 05:51:58;;;;;;;3.72;1.60;;;;;;;;;;5017212;28;20038;-73
2022/02/05 05:54:24;;;;;;;8.20;1.90;;;;;;;;;;5019677;28;20033;-72
2022/02/05 05:56:50;;;;;;;11.25;2.13;;;;;;;;;;5018253;28;20032;-73
2022/02/05 05:59:17;;;;;;;6.18;1.70;;;;;;;;;;5018569;28;20643;-72
2022/02/05 06:01:43;;;;;;;4.43;1.42;;;;;;;;;;5019170;28;20032;-72
2022/02/05 06:04:09;;;;;;;5.15;1.50;;;;;;;;;;5019529;28;20591;-73
2022/02/05 06:06:36;;;;;;;7.32;2.03;;;;;;;;;;5019137;28;20571;-73
2022/02/05 06:09:02;;;;;;;3.83;1.80;;;;;;;;;;5019837;28;20044;-72
2022/02/05 06:11:29;;;;;;;7.70;2.20;;;;;;;;;;5020662;28;20036;-72
2022/02/05 06:13:55;;;;;;;5.68;1.85;;;;;;;;;;5022236;28;20029;-73
2022/02/05 06:16:28;;;;;;;3.78;1.70;;;;;;;;;;5022806;28;20040;-73
2022/02/05 06:18:54;;;;;;;3.53;1.65;;;;;;;;;;5022791;28;20094;-73
2022/02/05 06:21:20;;;;;;;3.10;1.60;;;;;;;;;;5021618;28;20029;-73
2022/02/05 06:23:47;;;;;;;3.50;1.55;;;;;;;;;;5022443;28;20029;-73
2022/02/05 06:26:13;;;;;;;4.03;1.75;;;;;;;;;;5022700;28;20033;-73
2022/02/05 06:28:39;;;;;;;3.25;1.80;;;;;;;;;;5020953;28;20366;-74
2022/02/05 06:31:05;;;;;;;3.65;1.77;;;;;;;;;;5022200;28;20055;-73
2022/02/05 06:33:31;;;;;;;8.30;2.05;;;;;;;;;;5022383;28;20046;-73
2022/02/05 06:35:57;;;;;;;4.80;2.00;;;;;;;;;;5021065;28;20029;-73
2022/02/05 06:38:24;;;;;;;4.85;2.10;;;;;;;;;;5022590;28;20040;-73
2022/02/05 06:40:52;;;;;;;5.10;2.42;;;;;;;;;;5022020;28;20511;-73
2022/02/05 06:43:18;;;;;;;6.85;2.28;;;;;;;;;;5030020;28;20106;-73
2022/02/05 06:45:44;;;;;;;5.50;2.53;;;;;;;;;;5022114;28;20409;-73
2022/02/05 06:48:10;;;;;;;6.75;2.20;;;;;;;;;;5035255;28;20052;-73
2022/02/05 06:50:37;;;;;;;4.25;2.22;;;;;;;;;;5042165;28;20080;-73
2022/02/05 06:53:03;;;;;;;4.35;2.30;;;;;;;;;;5042256;28;20025;-73
2022/02/05 06:55:29;;;;;;;4.85;2.30;;;;;;;;;;5041875;28;20540;-73
2022/02/05 06:57:55;;;;;;;5.90;2.28;;;;;;;;;;5012981;28;20559;-73
2022/02/05 07:00:22;;;;;;;3.83;2.20;;;;;;;;;;5013837;28;20435;-73
2022/02/05 07:02:48;;;;;;;5.88;2.40;;;;;;;;;;5001150;28;20120;-72
2022/02/05 07:05:14;;;;;;;3.22;2.15;;;;;;;;;;5024619;28;20036;-72
2022/02/05 07:07:40;;;;;;;6.20;2.03;;;;;;;;;;5024168;28;20026;-72
2022/02/05 07:10:08;;;;;;;5.72;2.63;;;;;;;;;;5023591;28;20381;-72
2022/02/05 07:12:42;;;;;;;6.40;2.30;;;;;;;;;;5020156;28;20018;-75
2022/02/05 07:15:17;;;;;;;3.17;1.98;;;;;;;;;;5022400;28;20034;-72
2022/02/05 07:17:51;;;;;;;5.20;2.10;;;;;;;;;;5003898;28;20120;-72
2022/02/05 07:20:41;;;;;;;6.07;2.42;;;;;;;;;;5005160;28;20591;-72
2022/02/05 07:23:34;;;;;;;5.85;2.40;;;;;;;;;;5024381;28;20049;-72
2022/02/05 07:31:29;;;;;;;7.03;2.67;;;;;;;;;;5023691;28;20056;-72
2022/02/05 07:33:55;;;;;;;6.63;3.38;;;;;;;;;;5023459;28;20064;-72
2022/02/05 07:36:21;;;;;;;4.75;2.40;;;;;;;;;;5023911;28;20029;-72
2022/02/05 07:38:48;;;;;;;4.78;2.53;;;;;;;;;;5022128;28;20031;-72
2022/02/05 07:41:14;;;;;;;7.35;4.28;;;;;;;;;;5022197;28;20029;-72
2022/02/05 07:43:40;;;;;;;12.65;7.40;;;;;;;;;;5022514;28;20029;-72
2022/02/05 07:46:07;;;;;;;12.68;7.10;;;;;;;;;;5022221;28;20031;-72
2022/02/05 07:48:34;;;;;;;8.40;6.00;;;;;;;;;;5022630;28;20037;-72
2022/02/05 07:51:00;;;;;;;10.63;6.30;;;;;;;;;;5021226;28;20026;-72
2022/02/05 07:53:30;;;;;;;16.65;8.38;;;;;;;;;;5022987;28;20586;-72
2022/02/05 07:55:57;;;;;;;21.08;13.50;;;;;;;;;;5005671;28;20275;-72
2022/02/05 07:58:23;;;;;;;16.80;11.55;;;;;;;;;;5023466;28;20136;-73
2022/02/05 08:00:50;;;;;;;14.25;8.70;;;;;;;;;;5021653;28;20367;-72
2022/02/05 08:03:16;;;;;;;14.68;6.47;;;;;;;;;;5023059;28;20018;-72
2022/02/05 08:05:43;;;;;;;9.52;5.05;;;;;;;;;;5022776;28;20038;-72
2022/02/05 08:08:13;;;;;;;12.45;4.85;;;;;;;;;;5021360;28;20033;-72
2022/02/05 08:10:48;;;;;;;11.02;5.10;;;;;;;;;;5022899;28;20029;-73
2022/02/05 08:13:14;;;;;;;6.93;3.92;;;;;;;;;;5022952;28;20039;-73
2022/02/05 08:15:41;;;;;;;12.23;4.55;;;;;;;;;;5022657;28;20523;-73
2022/02/05 08:18:07;;;;;;;7.25;4.07;;;;;;;;;;5020925;28;20041;-72
2022/02/05 08:20:33;;;;;;;6.57;3.50;;;;;;;;;;5022981;28;20075;-72
2022/02/05 08:23:00;;;;;;;8.07;3.75;;;;;;;;;;5022943;28;20040;-72
2022/02/05 08:25:27;;;;;;;7.88;3.50;;;;;;;;;;5022756;28;20029;-72
2022/02/05 08:27:53;;;;;;;7.20;3.65;;;;;;;;;;5022297;28;20041;-72
2022/02/05 08:30:19;;;;;;;7.40;3.67;;;;;;;;;;5020702;28;20075;-72
2022/02/05 08:32:45;;;;;;;8.18;3.60;;;;;;;;;;5022877;28;20029;-72
2022/02/05 08:35:12;;;;;;;9.13;4.05;;;;;;;;;;5022492;28;20060;-72
2022/02/05 08:37:39;;;;;;;7.22;4.00;;;;;;;;;;5022817;28;20076;-72
2022/02/05 08:40:06;;;;;;;11.50;4.03;;;;;;;;;;5022381;28;20614;-72
2022/02/05 08:42:32;;;;;;;8.05;3.40;;;;;;;;;;5020889;28;20026;-72
2022/02/05 08:44:58;;;;;;;13.80;4.68;;;;;;;;;;5022572;28;20033;-72
2022/02/05 08:47:24;;;;;;;11.50;3.78;;;;;;;;;;5022598;28;20021;-72
2022/02/05 08:49:52;;;;;;;15.05;4.43;;;;;;;;;;5022345;28;20032;-72
2022/02/05 08:52:19;;;;;;;23.45;6.55;;;;;;;;;;5022437;28;20025;-72
2022/02/05 08:54:45;;;;;;;10.68;4.10;;;;;;;;;;5021025;28;20030;-72
2022/02/05 08:57:12;;;;;;;8.73;3.88;;;;;;;;;;5021868;28;20029;-72
2022/02/05 09:00:14;;;;;;;12.13;4.00;;;;;;;;;;5020741;28;20128;-73
2022/02/05 09:02:43;;;;;;;9.00;4.25;;;;;;;;;;5017109;28;20037;-72
2022/02/05 09:05:29;;;;;;;13.07;5.45;;;;;;;;;;5021788;28;20083;-72
2022/02/05 09:07:55;;;;;;;9.02;4.40;;;;;;;;;;5021836;28;20037;-72
2022/02/05 09:10:48;;;;;;;10.07;3.95;;;;;;;;;;5020571;28;20022;-76
2022/02/05 09:14:17;;;;;;;9.25;4.38;;;;;;;;;;5004065;28;20030;-75
2022/02/05 09:16:11;;;;;;;9.23;3.80;;;;;;;;;;5012588;28;20037;-75
2022/02/05 09:18:38;;;;;;;10.23;4.57;;;;;;;;;;5022055;28;20418;-73
2022/02/05 09:21:04;;;;;;;12.75;4.57;;;;;;;;;;5021866;28;20021;-74
2022/02/05 09:23:31;;;;;;;9.07;3.13;;;;;;;;;;5020654;28;20918;-74
2022/02/05 09:25:59;;;;;;;6.50;2.92;;;;;;;;;;5021886;28;20105;-74
2022/02/05 09:28:28;;;;;;;10.82;3.33;;;;;;;;;;5021678;28;20469;-74
2022/02/05 09:33:32;;;;;;;5.43;2.72;;;;;;;;;;5021800;28;20100;-74
2022/02/05 09:35:58;;;;;;;17.90;4.78;;;;;;;;;;5020031;28;20068;-74
2022/02/05 09:38:25;;;;;;;9.20;3.72;;;;;;;;;;5022076;28;20037;-73
2022/02/05 09:40:51;;;;;;;11.35;4.82;;;;;;;;;;5021887;28;20528;-74
2022/02/05 09:43:22;;;;;;;8.13;4.05;;;;;;;;;;5023855;28;20030;-74
2022/02/05 09:45:48;;;;;;;11.48;4.68;;;;;;;;;;5026253;28;20071;-72
2022/02/05 09:48:17;;;;;;;14.57;6.07;;;;;;;;;;5025986;28;20042;-74
2022/02/05 09:50:43;;;;;;;12.40;5.15;;;;;;;;;;5023534;28;20087;-73
2022/02/05 09:53:15;;;;;;;14.88;7.05;;;;;;;;;;5004746;28;20032;-72
2022/02/05 09:55:42;;;;;;;29.13;15.03;;;;;;;;;;5005389;28;20132;-72
2022/02/05 09:58:11;;;;;;;41.42;21.88;;;;;;;;;;5024895;28;20267;-73
2022/02/05 10:00:37;;;;;;;16.42;10.43;;;;;;;;;;5022480;28;20494;-74
2022/02/05 10:03:22;;;;;;;12.50;7.20;;;;;;;;;;5023737;28;20485;-72
2022/02/05 10:06:04;;;;;;;20.20;17.02;;;;;;;;;;5023032;28;20029;-73
2022/02/05 10:08:30;;;;;;;15.38;11.30;;;;;;;;;;5022500;28;20048;-73
2022/02/05 10:10:59;;;;;;;13.50;7.90;;;;;;;;;;5019154;28;20456;-72
2022/02/05 10:13:27;;;;;;;10.68;6.38;;;;;;;;;;5022489;28;20370;-73
2022/02/05 10:15:55;;;;;;;11.02;6.05;;;;;;;;;;5001915;28;20037;-72
2022/02/05 10:18:28;;;;;;;21.10;5.82;;;;;;;;;;5022737;28;20679;-69
2022/02/05 10:20:55;;;;;;;18.33;6.00;;;;;;;;;;5024091;28;20030;-72
2022/02/05 10:23:22;;;;;;;11.35;5.13;;;;;;;;;;5021899;28;20033;-71
2022/02/05 10:25:49;;;;;;;11.32;5.18;;;;;;;;;;5022077;28;20570;-73
2022/02/05 10:28:15;;;;;;;12.55;5.38;;;;;;;;;;5023403;28;20048;-74
2022/02/05 10:30:47;;;;;;;10.13;5.07;;;;;;;;;;5023466;28;20021;-73
2022/02/05 10:35:52;;;;;;;10.45;4.65;;;;;;;;;;5021524;28;20037;-71
2022/02/05 10:42:59;;;;;;;10.82;4.78;;;;;;;;;;5021452;28;20449;-72
2022/02/05 10:43:37;;;;;;;15.40;5.60;;;;;;;;;;5010084;28;20044;-72
2022/02/05 10:46:04;;;;;;;12.35;5.10;;;;;;;;;;5020031;28;20079;-73
2022/02/05 10:48:35;;;;;;;12.70;5.63;;;;;;;;;;5020526;28;20026;-76
2022/02/05 10:51:03;;;;;;;11.73;4.75;;;;;;;;;;5019329;28;20025;-73
2022/02/05 10:53:33;;;;;;;11.32;5.90;;;;;;;;;;5021362;28;20029;-73
2022/02/05 10:56:13;;;;;;;12.63;5.90;;;;;;;;;;5021833;28;20745;-73
2022/02/05 11:07:02;;;;;;;15.75;9.98;;;;;;;;;;5009568;28;20640;-74
2022/02/05 11:09:28;;;;;;;10.80;6.47;;;;;;;;;;5009418;28;20025;-74
2022/02/05 11:20:00;;;;;;;14.13;5.47;;;;;;;;;;5021169;28;20437;-73
2022/02/05 11:22:29;;;;;;;10.02;5.53;;;;;;;;;;5020790;28;20025;-74
2022/02/05 11:24:55;;;;;;;10.60;5.25;;;;;;;;;;5017415;28;20034;-75
2022/02/05 11:27:22;;;;;;;14.57;4.55;;;;;;;;;;5020205;28;20030;-75
2022/02/05 11:29:48;;;;;;;10.52;4.72;;;;;;;;;;4999544;28;20040;-73
2022/02/05 11:32:21;;;;;;;9.27;5.45;;;;;;;;;;5001867;28;20056;-74
2022/02/05 11:35:00;;;;;;;9.18;4.97;;;;;;;;;;5000828;28;20434;-73
2022/02/05 11:37:26;;;;;;;14.40;5.63;;;;;;;;;;5006462;28;20021;-74
2022/02/05 11:39:54;;;;;;;8.90;4.80;;;;;;;;;;5019142;28;20029;-74
2022/02/05 11:42:36;;;;;;;12.18;5.65;;;;;;;;;;5024499;28;20055;-73
2022/02/05 11:45:21;;;;;;;14.13;4.65;;;;;;;;;;5017063;28;20041;-74
2022/02/05 11:47:47;;;;;;;9.60;4.43;;;;;;;;;;5020455;28;20436;-74
2022/02/05 11:50:14;;;;;;;10.98;4.82;;;;;;;;;;5019554;28;20094;-73
2022/02/05 11:52:44;;;;;;;10.93;4.78;;;;;;;;;;5020300;28;20461;-73
2022/02/05 11:55:10;;;;;;;11.15;4.32;;;;;;;;;;5018624;28;20017;-75
2022/02/05 11:57:42;;;;;;;11.18;4.85;;;;;;;;;;5018894;28;20048;-73
2022/02/05 12:00:10;;;;;;;8.88;4.55;;;;;;;;;;5021985;28;20037;-72
2022/02/05 12:02:45;;;;;;;11.57;4.18;;;;;;;;;;5040087;28;20033;-73
2022/02/05 12:05:16;;;;;;;6.65;3.40;;;;;;;;;;5020192;28;20087;-73
2022/02/05 12:08:00;;;;;;;8.27;3.58;;;;;;;;;;5020089;28;20034;-72
2022/02/05 12:10:33;;;;;;;12.10;4.10;;;;;;;;;;5019935;28;20029;-72
2022/02/05 12:13:21;;;;;;;10.30;4.13;;;;;;;;;;5020056;28;20025;-72
2022/02/05 12:15:48;;;;;;;11.27;4.10;;;;;;;;;;5009672;28;20563;-72
2022/02/05 12:18:21;;;;;;;14.40;4.97;;;;;;;;;;5018605;28;20133;-72
2022/02/05 12:23:53;;;;;;;9.18;3.65;;;;;;;;;;5019976;28;20039;-72
2022/02/05 12:26:25;;;;;;;8.20;3.58;;;;;;;;;;5019993;28;20045;-72
2022/02/05 12:28:52;;;;;;;8.80;3.95;;;;;;;;;;5019420;28;20124;-73
2022/02/05 12:31:18;;;;;;;9.32;3.47;;;;;;;;;;5017684;28;20025;-72
2022/02/05 12:33:52;;;;;;;12.82;4.03;;;;;;;;;;5019681;28;20053;-72
2022/02/05 12:36:28;;;;;;;11.82;3.88;;;;;;;;;;5019543;28;20116;-72
2022/02/05 12:38:55;;;;;;;7.50;3.78;;;;;;;;;;5019651;28;20036;-73
2022/02/05 12:41:22;;;;;;;6.65;4.10;;;;;;;;;;5020041;28;20500;-73
2022/02/05 12:43:56;;;;;;;11.98;4.07;;;;;;;;;;5027393;28;20036;-73
2022/02/05 12:46:36;;;;;;;12.30;4.28;;;;;;;;;;5012542;28;20033;-74
2022/02/05 12:49:06;;;;;;;6.07;3.17;;;;;;;;;;4999661;28;20130;-73
2022/02/05 12:51:32;;;;;;;6.78;3.53;;;;;;;;;;5010068;28;20018;-72
2022/02/05 12:54:09;;;;;;;7.60;4.65;;;;;;;;;;5017540;28;20021;-73
2022/02/05 12:56:38;;;;;;;10.25;5.70;;;;;;;;;;5019332;28;20057;-73
2022/02/05 12:59:09;;;;;;;19.88;9.95;;;;;;;;;;5023138;28;20029;-72
2022/02/05 13:01:38;;;;;;;18.95;10.65;;;;;;;;;;5017397;28;20035;-72
2022/02/05 13:04:10;;;;;;;13.32;9.20;;;;;;;;;;5018901;28;20484;-72
2022/02/05 13:06:37;;;;;;;13.93;6.43;;;;;;;;;;5009546;28;20113;-73
2022/02/05 13:09:03;;;;;;;12.88;5.68;;;;;;;;;;4998222;28;20048;-72
2022/02/05 13:11:31;;;;;;;14.13;4.65;;;;;;;;;;4999389;28;20030;-72
2022/02/05 13:14:00;;;;;;;10.73;4.78;;;;;;;;;;4999414;28;20105;-72
2022/02/05 13:16:36;;;;;;;12.27;4.15;;;;;;;;;;4999310;28;20489;-72
2022/02/05 13:19:20;;;;;;;6.63;3.80;;;;;;;;;;5002211;28;20044;-73
2022/02/05 13:27:29;;;;;;;13.40;6.15;;;;;;;;;;5003172;28;20030;-72
2022/02/05 13:33:35;;;;;;;19.73;6.10;;;;;;;;;;5002991;28;20588;-72
2022/02/05 13:35:27;;;;;;;13.88;5.10;;;;;;;;;;5002159;28;20485;-72
2022/02/05 13:37:57;;;;;;;12.35;7.10;;;;;;;;;;5003417;28;20137;-72
2022/02/05 13:40:24;;;;;;;15.95;7.50;;;;;;;;;;5015269;28;20029;-72
2022/02/05 13:42:53;;;;;;;12.27;5.55;;;;;;;;;;5035878;28;20025;-72
2022/02/05 13:45:35;;;;;;;18.05;6.90;;;;;;;;;;5020182;28;20021;-72
2022/02/05 13:48:04;;;;;;;36.78;18.40;;;;;;;;;;5010576;28;20037;-72
2022/02/05 13:50:37;;;;;;;20.15;10.43;;;;;;;;;;5022814;28;20088;-72
2022/02/05 13:53:06;;;;;;;19.25;12.88;;;;;;;;;;5022157;28;20032;-72
2022/02/05 13:55:35;;;;;;;13.05;10.10;;;;;;;;;;5020808;28;20588;-72
2022/02/05 13:58:06;;;;;;;20.73;7.57;;;;;;;;;;5022381;28;20085;-72
2022/02/05 14:00:49;;;;;;;14.00;7.45;;;;;;;;;;5022445;28;20096;-72
2022/02/05 14:03:36;;;;;;;18.67;10.07;;;;;;;;;;5022325;28;20032;-72
2022/02/05 14:06:05;;;;;;;17.25;10.82;;;;;;;;;;5008979;28;20037;-72
2022/02/05 14:08:33;;;;;;;20.98;9.20;;;;;;;;;;5020624;28;20124;-72
2022/02/05 14:11:03;;;;;;;21.38;8.25;;;;;;;;;;5022105;28;20093;-72
2022/02/05 14:13:30;;;;;;;18.42;6.68;;;;;;;;;;5022156;28;20034;-72
2022/02/05 14:15:59;;;;;;;13.38;6.50;;;;;;;;;;5022370;28;20030;-73
2022/02/05 14:18:26;;;;;;;14.55;7.43;;;;;;;;;;5022081;28;20108;-72
2022/02/05 14:20:53;;;;;;;16.75;8.57;;;;;;;;;;5021023;28;20025;-73
2022/02/05 14:23:21;;;;;;;15.93;9.05;;;;;;;;;;5021501;28;20107;-72
2022/02/05 14:25:50;;;;;;;15.15;7.07;;;;;;;;;;5022004;28;20519;-72
2022/02/05 14:28:26;;;;;;;14.85;5.57;;;;;;;;;;5020897;28;20037;-73
2022/02/05 14:31:09;;;;;;;18.88;5.60;;;;;;;;;;5020540;28;20083;-71
2022/02/05 14:41:49;;;;;;;21.85;6.53;;;;;;;;;;5014046;28;20047;-70
2022/02/05 14:44:16;;;;;;;17.67;6.85;;;;;;;;;;5021157;28;20392;-72
2022/02/05 14:46:42;;;;;;;15.75;8.02;;;;;;;;;;5018209;28;20053;-72
2022/02/05 14:49:09;;;;;;;16.70;6.25;;;;;;;;;;5016588;28;20064;-72
2022/02/05 14:51:35;;;;;;;19.33;8.40;;;;;;;;;;5003792;28;20472;-72
2022/02/05 14:54:01;;;;;;;15.45;5.43;;;;;;;;;;5003768;28;20084;-73
2022/02/05 14:56:28;;;;;;;11.82;5.22;;;;;;;;;;5001432;28;20182;-72
2022/02/05 14:58:54;;;;;;;13.75;4.57;;;;;;;;;;5003802;28;20037;-72
2022/02/05 15:01:23;;;;;;;12.90;4.10;;;;;;;;;;5003426;28;20026;-72
2022/02/05 15:03:49;;;;;;;19.48;5.47;;;;;;;;;;5003118;28;20025;-71
2022/02/05 15:06:21;;;;;;;15.55;5.40;;;;;;;;;;5003717;28;20091;-72
2022/02/05 15:08:47;;;;;;;15.50;5.65;;;;;;;;;;5009385;28;20041;-72
2022/02/05 15:11:14;;;;;;;10.95;4.07;;;;;;;;;;5023114;28;20100;-72
2022/02/05 15:13:41;;;;;;;15.05;4.40;;;;;;;;;;5022905;28;20036;-72
2022/02/05 15:16:09;;;;;;;12.38;4.22;;;;;;;;;;5023382;28;20593;-72
2022/02/05 15:18:36;;;;;;;13.43;5.05;;;;;;;;;;5022851;28;20056;-70
2022/02/05 15:21:03;;;;;;;12.90;4.90;;;;;;;;;;5022893;28;20032;-72
2022/02/05 15:23:29;;;;;;;16.52;5.93;;;;;;;;;;5020481;28;20759;-72
2022/02/05 15:26:00;;;;;;;12.75;4.57;;;;;;;;;;5021076;28;20516;-72
2022/02/05 15:28:26;;;;;;;14.85;5.22;;;;;;;;;;5022228;28;20523;-72
2022/02/05 15:30:52;;;;;;;12.55;5.10;;;;;;;;;;5022147;28;20036;-72
2022/02/05 15:33:21;;;;;;;20.15;8.05;;;;;;;;;;5020616;28;20572;-73
2022/02/05 15:35:47;;;;;;;14.48;6.63;;;;;;;;;;5022053;28;20188;-72
2022/02/05 15:38:19;;;;;;;17.75;7.07;;;;;;;;;;5021727;28;20035;-73
2022/02/05 15:46:35;;;;;;;16.63;5.07;;;;;;;;;;4959087;28;20585;-72
2022/02/05 15:49:01;;;;;;;15.18;5.40;;;;;;;;;;4959765;28;20046;-72
2022/02/05 15:51:30;;;;;;;26.65;12.20;;;;;;;;;;4987833;28;20125;-73
2022/02/05 15:54:01;;;;;;;18.58;5.85;;;;;;;;;;5020525;28;20155;-72
2022/02/05 15:56:47;;;;;;;20.38;5.55;;;;;;;;;;5017502;28;20021;-72
2022/02/05 15:59:18;;;;;;;16.48;5.97;;;;;;;;;;5021532;28;20530;-72
2022/02/05 16:01:45;;;;;;;22.60;6.35;;;;;;;;;;5022499;28;20133;-72
2022/02/05 16:04:12;;;;;;;17.75;6.90;;;;;;;;;;5010502;28;20042;-72
2022/02/05 16:06:39;;;;;;;15.05;5.53;;;;;;;;;;5018644;28;20040;-72
2022/02/05 16:09:05;;;;;;;19.95;6.30;;;;;;;;;;5019613;28;20022;-72
2022/02/05 16:11:31;;;;;;;16.27;7.28;;;;;;;;;;5016824;28;20527;-72
2022/02/05 16:13:57;;;;;;;12.57;4.00;;;;;;;;;;5021288;28;20591;-72
2022/02/05 16:16:24;;;;;;;14.85;5.55;;;;;;;;;;5021380;28;20037;-72
2022/02/05 16:18:50;;;;;;;14.60;5.95;;;;;;;;;;5020435;28;20035;-72
2022/02/05 16:21:18;;;;;;;13.65;6.00;;;;;;;;;;5021640;28;20038;-72
2022/02/05 16:23:45;;;;;;;10.98;4.40;;;;;;;;;;5021610;28;20032;-72
2022/02/05 16:26:11;;;;;;;12.50;4.95;;;;;;;;;;5024592;28;20013;-72
2022/02/05 16:28:38;;;;;;;16.20;5.65;;;;;;;;;;5024658;28;20374;-72
2022/02/05 16:31:07;;;;;;;19.38;5.25;;;;;;;;;;5019093;28;20017;-71
2022/02/05 16:33:37;;;;;;;15.60;7.55;;;;;;;;;;5020183;28;20489;-72
2022/02/05 16:36:08;;;;;;;16.25;6.25;;;;;;;;;;5021001;28;20072;-72
2022/02/05 16:38:38;;;;;;;12.00;6.43;;;;;;;;;;5021485;28;20026;-70
2022/02/05 16:41:05;;;;;;;12.07;4.60;;;;;;;;;;5019662;28;20056;-70
2022/02/05 16:43:36;;;;;;;16.10;4.60;;;;;;;;;;5015338;28;20040;-70
2022/02/05 16:46:03;;;;;;;16.77;5.57;;;;;;;;;;5011697;28;20536;-71
2022/02/05 16:48:33;;;;;;;16.55;6.15;;;;;;;;;;5019373;28;20033;-73
2022/02/05 16:50:59;;;;;;;13.00;5.18;;;;;;;;;;5018187;28;20497;-73
2022/02/05 16:53:25;;;;;;;15.10;5.15;;;;;;;;;;5019326;28;20029;-70
2022/02/05 16:55:51;;;;;;;24.25;8.60;;;;;;;;;;5016120;28;20036;-71
2022/02/05 16:58:17;;;;;;;17.17;6.78;;;;;;;;;;5018796;28;20495;-70
2022/02/05 17:00:44;;;;;;;14.38;6.35;;;;;;;;;;5018909;28;20029;-71
2022/02/05 17:03:10;;;;;;;15.30;5.60;;;;;;;;;;5017588;28;20087;-71
2022/02/05 17:05:43;;;;;;;19.58;8.00;;;;;;;;;;5019377;28;20026;-71
2022/02/05 17:08:10;;;;;;;17.63;6.90;;;;;;;;;;5019043;28;20071;-71
2022/02/05 17:10:37;;;;;;;20.33;5.90;;;;;;;;;;5019099;28;20025;-71
2022/02/05 17:13:04;;;;;;;15.52;4.90;;;;;;;;;;5018749;28;20026;-71
2022/02/05 17:15:31;;;;;;;10.25;3.72;;;;;;;;;;5018377;28;20430;-71
2022/02/05 17:18:05;;;;;;;8.43;3.60;;;;;;;;;;5019146;28;20136;-71
2022/02/05 17:20:33;;;;;;;10.80;3.88;;;;;;;;;;5019467;28;20021;-71
2022/02/05 17:23:00;;;;;;;12.27;3.58;;;;;;;;;;5019076;28;20040;-71
2022/02/05 17:25:35;;;;;;;13.38;3.70;;;;;;;;;;5017729;28;20029;-70
2022/02/05 17:28:02;;;;;;;15.77;3.65;;;;;;;;;;5019338;28;20037;-71
2022/02/05 17:30:28;;;;;;;9.82;3.78;;;;;;;;;;5018961;28;20033;-71